sensor_id;sensor_type;location;lat;lon;timestamp;temperature;humidity
2873;DHT22;1444;49.166;7.312;2024-03-08T00:00:16;5.40;99.20
2873;DHT22;1444;49.166;7.312;2024-03-08T00:02:44;5.30;99.40
2873;DHT22;1444;49.166;7.312;2024-03-08T00:05:11;5.30;99.90
2873;DHT22;1444;49.166;7.312;2024-03-08T00:07:39;5.30;99.90
2873;DHT22;1444;49.166;7.312;2024-03-08T00:10:08;5.20;99.90
2873;DHT22;1444;49.166;7.312;2024-03-08T00:12:36;5.20;99.90
2873;DHT22;1444;49.166;7.312;2024-03-08T00:15:03;5.20;99.90
2873;DHT22;1444;49.166;7.312;2024-03-08T00:17:29;5.20;99.90
2873;DHT22;1444;49.166;7.312;2024-03-08T00:19:56;5.20;99.90
2873;DHT22;1444;49.166;7.312;2024-03-08T00:22:23;5.30;99.90
2873;DHT22;1444;49.166;7.312;2024-03-08T00:24:49;5.30;99.90
2873;DHT22;1444;49.166;7.312;2024-03-08T00:27:16;5.30;99.90
2873;DHT22;1444;49.166;7.312;2024-03-08T00:29:42;5.20;99.90
2873;DHT22;1444;49.166;7.312;2024-03-08T00:32:08;5.20;99.90
2873;DHT22;1444;49.166;7.312;2024-03-08T00:34:35;5.20;99.90
2873;DHT22;1444;49.166;7.312;2024-03-08T00:37:02;5.30;99.90
2873;DHT22;1444;49.166;7.312;2024-03-08T00:39:28;5.30;99.90
2873;DHT22;1444;49.166;7.312;2024-03-08T00:41:55;5.30;99.90
2873;DHT22;1444;49.166;7.312;2024-03-08T00:44:22;5.40;99.90
2873;DHT22;1444;49.166;7.312;2024-03-08T00:46:49;5.40;99.90
2873;DHT22;1444;49.166;7.312;2024-03-08T00:49:15;5.40;99.90
2873;DHT22;1444;49.166;7.312;2024-03-08T00:51:41;5.50;99.90
2873;DHT22;1444;49.166;7.312;2024-03-08T00:54:07;5.50;99.90
2873;DHT22;1444;49.166;7.312;2024-03-08T00:56:33;5.60;99.90
2873;DHT22;1444;49.166;7.312;2024-03-08T00:59:01;5.60;99.90
2873;DHT22;1444;49.166;7.312;2024-03-08T01:01:28;5.60;99.90
2873;DHT22;1444;49.166;7.312;2024-03-08T01:03:55;5.50;99.90
2873;DHT22;1444;49.166;7.312;2024-03-08T01:06:22;5.50;99.90
2873;DHT22;1444;49.166;7.312;2024-03-08T01:08:48;5.50;99.90
2873;DHT22;1444;49.166;7.312;2024-03-08T01:11:17;5.50;99.90
2873;DHT22;1444;49.166;7.312;2024-03-08T01:13:43;5.50;99.90
2873;DHT22;1444;49.166;7.312;2024-03-08T01:16:10;5.50;99.90
2873;DHT22;1444;49.166;7.312;2024-03-08T01:18:36;5.60;99.90
2873;DHT22;1444;49.166;7.312;2024-03-08T01:21:02;5.60;99.90
2873;DHT22;1444;49.166;7.312;2024-03-08T01:23:29;5.60;99.90
2873;DHT22;1444;49.166;7.312;2024-03-08T01:25:55;5.60;99.90
2873;DHT22;1444;49.166;7.312;2024-03-08T01:28:23;5.60;99.90
2873;DHT22;1444;49.166;7.312;2024-03-08T01:30:49;5.60;99.90
2873;DHT22;1444;49.166;7.312;2024-03-08T01:33:22;5.60;99.90
2873;DHT22;1444;49.166;7.312;2024-03-08T01:35:48;5.70;99.90
2873;DHT22;1444;49.166;7.312;2024-03-08T01:38:14;5.60;99.90
2873;DHT22;1444;49.166;7.312;2024-03-08T01:40:41;5.60;99.90
2873;DHT22;1444;49.166;7.312;2024-03-08T01:43:20;5.60;99.90
2873;DHT22;1444;49.166;7.312;2024-03-08T01:45:46;5.60;99.90
2873;DHT22;1444;49.166;7.312;2024-03-08T01:48:13;5.60;99.90
2873;DHT22;1444;49.166;7.312;2024-03-08T01:50:41;5.60;99.90
2873;DHT22;1444;49.166;7.312;2024-03-08T01:53:08;5.70;99.90
2873;DHT22;1444;49.166;7.312;2024-03-08T01:55:36;5.60;99.90
2873;DHT22;1444;49.166;7.312;2024-03-08T01:58:03;5.60;99.90
2873;DHT22;1444;49.166;7.312;2024-03-08T02:00:30;5.60;99.90
2873;DHT22;1444;49.166;7.312;2024-03-08T02:02:57;5.60;99.90
2873;DHT22;1444;49.166;7.312;2024-03-08T02:05:23;5.50;99.90
2873;DHT22;1444;49.166;7.312;2024-03-08T02:07:50;5.60;99.90
2873;DHT22;1444;49.166;7.312;2024-03-08T02:10:17;5.60;99.90
2873;DHT22;1444;49.166;7.312;2024-03-08T02:12:44;5.50;99.90
2873;DHT22;1444;49.166;7.312;2024-03-08T02:15:10;5.50;99.90
2873;DHT22;1444;49.166;7.312;2024-03-08T02:17:36;5.50;99.90
2873;DHT22;1444;49.166;7.312;2024-03-08T02:22:31;5.50;99.90
2873;DHT22;1444;49.166;7.312;2024-03-08T02:24:58;5.50;99.90
2873;DHT22;1444;49.166;7.312;2024-03-08T02:27:27;5.50;99.90
2873;DHT22;1444;49.166;7.312;2024-03-08T02:29:55;5.50;99.90
2873;DHT22;1444;49.166;7.312;2024-03-08T02:32:22;5.50;99.90
2873;DHT22;1444;49.166;7.312;2024-03-08T02:34:48;5.50;99.90
2873;DHT22;1444;49.166;7.312;2024-03-08T02:37:15;5.40;99.90
2873;DHT22;1444;49.166;7.312;2024-03-08T02:42:08;5.40;99.90
2873;DHT22;1444;49.166;7.312;2024-03-08T02:44:34;5.40;99.90
2873;DHT22;1444;49.166;7.312;2024-03-08T02:47:02;5.40;99.90
2873;DHT22;1444;49.166;7.312;2024-03-08T02:49:29;5.50;99.90
2873;DHT22;1444;49.166;7.312;2024-03-08T02:51:56;5.40;99.90
2873;DHT22;1444;49.166;7.312;2024-03-08T02:54:22;5.50;99.90
2873;DHT22;1444;49.166;7.312;2024-03-08T02:56:50;5.50;99.90
2873;DHT22;1444;49.166;7.312;2024-03-08T02:59:16;5.50;99.90
2873;DHT22;1444;49.166;7.312;2024-03-08T03:01:43;5.40;99.90
2873;DHT22;1444;49.166;7.312;2024-03-08T03:04:09;5.40;99.90
2873;DHT22;1444;49.166;7.312;2024-03-08T03:06:35;5.40;99.90
2873;DHT22;1444;49.166;7.312;2024-03-08T03:09:02;5.40;99.90
2873;DHT22;1444;49.166;7.312;2024-03-08T03:11:32;5.30;99.90
2873;DHT22;1444;49.166;7.312;2024-03-08T03:13:59;5.30;99.90
2873;DHT22;1444;49.166;7.312;2024-03-08T03:16:25;5.30;99.90
2873;DHT22;1444;49.166;7.312;2024-03-08T03:18:51;5.30;99.90
2873;DHT22;1444;49.166;7.312;2024-03-08T03:21:17;5.20;99.90
2873;DHT22;1444;49.166;7.312;2024-03-08T03:23:43;5.20;99.90
2873;DHT22;1444;49.166;7.312;2024-03-08T03:26:09;5.20;99.90
2873;DHT22;1444;49.166;7.312;2024-03-08T03:28:37;5.10;99.90
2873;DHT22;1444;49.166;7.312;2024-03-08T03:31:06;5.10;99.90
2873;DHT22;1444;49.166;7.312;2024-03-08T03:33:32;5.10;99.90
2873;DHT22;1444;49.166;7.312;2024-03-08T03:35:59;5.10;99.90
2873;DHT22;1444;49.166;7.312;2024-03-08T03:38:26;5.10;99.90
2873;DHT22;1444;49.166;7.312;2024-03-08T03:40:53;5.10;99.90
2873;DHT22;1444;49.166;7.312;2024-03-08T03:43:22;5.10;99.90
2873;DHT22;1444;49.166;7.312;2024-03-08T03:45:49;5.10;99.90
2873;DHT22;1444;49.166;7.312;2024-03-08T03:48:17;5.10;99.90
2873;DHT22;1444;49.166;7.312;2024-03-08T03:50:43;5.10;99.90
2873;DHT22;1444;49.166;7.312;2024-03-08T03:53:09;5.10;99.90
2873;DHT22;1444;49.166;7.312;2024-03-08T03:55:35;5.10;99.90
2873;DHT22;1444;49.166;7.312;2024-03-08T03:58:02;5.10;99.90
2873;DHT22;1444;49.166;7.312;2024-03-08T04:00:28;5.10;99.90
2873;DHT22;1444;49.166;7.312;2024-03-08T04:03:00;5.10;99.90
2873;DHT22;1444;49.166;7.312;2024-03-08T04:05:27;5.10;99.90
2873;DHT22;1444;49.166;7.312;2024-03-08T04:07:53;5.00;99.90
2873;DHT22;1444;49.166;7.312;2024-03-08T04:10:19;5.00;99.90
2873;DHT22;1444;49.166;7.312;2024-03-08T04:12:45;5.00;99.90
2873;DHT22;1444;49.166;7.312;2024-03-08T04:15:11;5.00;99.90
2873;DHT22;1444;49.166;7.312;2024-03-08T04:17:38;5.00;99.90
2873;DHT22;1444;49.166;7.312;2024-03-08T04:20:05;4.90;99.90
2873;DHT22;1444;49.166;7.312;2024-03-08T04:22:36;4.90;99.90
2873;DHT22;1444;49.166;7.312;2024-03-08T04:25:02;4.80;99.90
2873;DHT22;1444;49.166;7.312;2024-03-08T04:27:28;4.90;99.90
2873;DHT22;1444;49.166;7.312;2024-03-08T04:29:54;4.90;99.90
2873;DHT22;1444;49.166;7.312;2024-03-08T04:32:22;4.80;99.90
2873;DHT22;1444;49.166;7.312;2024-03-08T04:34:48;4.80;99.90
2873;DHT22;1444;49.166;7.312;2024-03-08T04:37:15;4.80;99.90
2873;DHT22;1444;49.166;7.312;2024-03-08T04:39:44;4.80;99.90
2873;DHT22;1444;49.166;7.312;2024-03-08T04:42:10;4.80;99.90
2873;DHT22;1444;49.166;7.312;2024-03-08T04:44:36;4.80;99.90
2873;DHT22;1444;49.166;7.312;2024-03-08T04:47:03;4.80;99.90
2873;DHT22;1444;49.166;7.312;2024-03-08T04:49:31;4.80;99.90
2873;DHT22;1444;49.166;7.312;2024-03-08T04:51:57;4.80;99.90
2873;DHT22;1444;49.166;7.312;2024-03-08T04:54:23;4.80;99.90
2873;DHT22;1444;49.166;7.312;2024-03-08T04:56:50;4.80;99.90
2873;DHT22;1444;49.166;7.312;2024-03-08T04:59:16;4.70;99.90
2873;DHT22;1444;49.166;7.312;2024-03-08T05:01:42;4.70;99.90
2873;DHT22;1444;49.166;7.312;2024-03-08T05:04:09;4.70;99.90
2873;DHT22;1444;49.166;7.312;2024-03-08T05:06:35;4.70;99.90
2873;DHT22;1444;49.166;7.312;2024-03-08T05:09:03;4.70;99.90
2873;DHT22;1444;49.166;7.312;2024-03-08T05:11:42;4.60;99.90
2873;DHT22;1444;49.166;7.312;2024-03-08T05:14:09;4.70;99.90
2873;DHT22;1444;49.166;7.312;2024-03-08T05:16:36;4.70;99.90
2873;DHT22;1444;49.166;7.312;2024-03-08T05:19:02;4.60;99.80
2873;DHT22;1444;49.166;7.312;2024-03-08T05:21:28;4.60;99.90
2873;DHT22;1444;49.166;7.312;2024-03-08T05:23:54;4.60;99.90
2873;DHT22;1444;49.166;7.312;2024-03-08T05:26:21;4.60;99.90
2873;DHT22;1444;49.166;7.312;2024-03-08T05:28:48;4.50;99.90
2873;DHT22;1444;49.166;7.312;2024-03-08T05:31:19;4.60;99.90
2873;DHT22;1444;49.166;7.312;2024-03-08T05:33:46;4.60;99.90
2873;DHT22;1444;49.166;7.312;2024-03-08T05:36:12;4.60;99.90
2873;DHT22;1444;49.166;7.312;2024-03-08T05:41:07;4.60;99.90
2873;DHT22;1444;49.166;7.312;2024-03-08T05:43:34;4.50;99.90
2873;DHT22;1444;49.166;7.312;2024-03-08T05:46:00;4.40;99.90
2873;DHT22;1444;49.166;7.312;2024-03-08T05:48:27;4.40;99.90
2873;DHT22;1444;49.166;7.312;2024-03-08T05:50:53;4.30;99.90
2873;DHT22;1444;49.166;7.312;2024-03-08T05:53:19;4.40;99.90
2873;DHT22;1444;49.166;7.312;2024-03-08T05:55:46;4.30;99.90
2873;DHT22;1444;49.166;7.312;2024-03-08T05:58:12;4.40;99.90
2873;DHT22;1444;49.166;7.312;2024-03-08T06:00:38;4.30;99.80
2873;DHT22;1444;49.166;7.312;2024-03-08T06:03:04;4.30;99.80
2873;DHT22;1444;49.166;7.312;2024-03-08T06:05:31;4.30;99.90
2873;DHT22;1444;49.166;7.312;2024-03-08T06:07:57;4.30;99.90
2873;DHT22;1444;49.166;7.312;2024-03-08T06:10:23;4.30;99.70
2873;DHT22;1444;49.166;7.312;2024-03-08T06:12:49;4.30;99.80
2873;DHT22;1444;49.166;7.312;2024-03-08T06:17:46;4.30;99.80
2873;DHT22;1444;49.166;7.312;2024-03-08T06:20:12;4.30;99.90
2873;DHT22;1444;49.166;7.312;2024-03-08T06:22:39;4.30;99.90
2873;DHT22;1444;49.166;7.312;2024-03-08T06:25:07;4.30;99.90
2873;DHT22;1444;49.166;7.312;2024-03-08T06:27:33;4.30;99.90
2873;DHT22;1444;49.166;7.312;2024-03-08T06:29:59;4.30;99.90
2873;DHT22;1444;49.166;7.312;2024-03-08T06:32:26;4.30;99.90
2873;DHT22;1444;49.166;7.312;2024-03-08T06:34:52;4.30;99.80
2873;DHT22;1444;49.166;7.312;2024-03-08T06:37:18;4.30;99.90
2873;DHT22;1444;49.166;7.312;2024-03-08T06:39:47;4.40;99.90
2873;DHT22;1444;49.166;7.312;2024-03-08T06:42:14;4.40;99.90
2873;DHT22;1444;49.166;7.312;2024-03-08T06:44:40;4.50;99.90
2873;DHT22;1444;49.166;7.312;2024-03-08T06:47:14;4.50;99.90
2873;DHT22;1444;49.166;7.312;2024-03-08T06:49:40;4.50;99.90
2873;DHT22;1444;49.166;7.312;2024-03-08T06:52:06;4.60;99.80
2873;DHT22;1444;49.166;7.312;2024-03-08T06:54:34;4.60;99.80
2873;DHT22;1444;49.166;7.312;2024-03-08T06:57:02;4.70;99.90
2873;DHT22;1444;49.166;7.312;2024-03-08T06:59:29;4.70;99.80
2873;DHT22;1444;49.166;7.312;2024-03-08T07:01:55;4.90;99.90
2873;DHT22;1444;49.166;7.312;2024-03-08T07:04:21;5.30;99.90
2873;DHT22;1444;49.166;7.312;2024-03-08T07:06:56;6.30;99.90
2873;DHT22;1444;49.166;7.312;2024-03-08T07:09:23;7.70;99.90
2873;DHT22;1444;49.166;7.312;2024-03-08T07:11:51;8.80;98.60
2873;DHT22;1444;49.166;7.312;2024-03-08T07:14:21;9.50;97.50
2873;DHT22;1444;49.166;7.312;2024-03-08T07:16:47;10.90;94.40
2873;DHT22;1444;49.166;7.312;2024-03-08T07:19:14;11.50;93.60
2873;DHT22;1444;49.166;7.312;2024-03-08T07:21:40;12.00;93.00
2873;DHT22;1444;49.166;7.312;2024-03-08T07:26:51;13.70;90.50
2873;DHT22;1444;49.166;7.312;2024-03-08T07:29:17;14.40;89.80
2873;DHT22;1444;49.166;7.312;2024-03-08T07:31:44;14.70;88.00
2873;DHT22;1444;49.166;7.312;2024-03-08T07:34:16;15.30;86.60
2873;DHT22;1444;49.166;7.312;2024-03-08T07:36:42;15.70;84.60
2873;DHT22;1444;49.166;7.312;2024-03-08T07:39:08;16.00;83.80
2873;DHT22;1444;49.166;7.312;2024-03-08T07:41:37;16.10;83.20
2873;DHT22;1444;49.166;7.312;2024-03-08T07:46:30;16.60;80.90
2873;DHT22;1444;49.166;7.312;2024-03-08T07:48:57;16.80;82.00
2873;DHT22;1444;49.166;7.312;2024-03-08T07:51:23;17.10;79.50
2873;DHT22;1444;49.166;7.312;2024-03-08T07:53:49;17.10;79.00
2873;DHT22;1444;49.166;7.312;2024-03-08T07:56:15;17.40;80.60
2873;DHT22;1444;49.166;7.312;2024-03-08T07:58:43;17.70;77.80
2873;DHT22;1444;49.166;7.312;2024-03-08T08:01:16;17.70;78.60
2873;DHT22;1444;49.166;7.312;2024-03-08T08:03:42;17.80;78.40
2873;DHT22;1444;49.166;7.312;2024-03-08T08:06:09;17.70;77.00
2873;DHT22;1444;49.166;7.312;2024-03-08T08:08:38;17.30;76.20
2873;DHT22;1444;49.166;7.312;2024-03-08T08:13:34;16.80;77.90
2873;DHT22;1444;49.166;7.312;2024-03-08T08:16:00;16.40;76.50
2873;DHT22;1444;49.166;7.312;2024-03-08T08:18:26;16.30;79.30
2873;DHT22;1444;49.166;7.312;2024-03-08T08:20:52;15.80;78.00
2873;DHT22;1444;49.166;7.312;2024-03-08T08:23:19;15.40;78.10
2873;DHT22;1444;49.166;7.312;2024-03-08T08:25:45;14.90;79.00
2873;DHT22;1444;49.166;7.312;2024-03-08T08:28:11;14.60;80.20
2873;DHT22;1444;49.166;7.312;2024-03-08T08:30:38;14.60;81.10
2873;DHT22;1444;49.166;7.312;2024-03-08T08:33:04;13.90;82.30
2873;DHT22;1444;49.166;7.312;2024-03-08T08:35:31;13.60;82.80
2873;DHT22;1444;49.166;7.312;2024-03-08T08:37:58;13.40;82.90
2873;DHT22;1444;49.166;7.312;2024-03-08T08:40:25;13.20;83.00
2873;DHT22;1444;49.166;7.312;2024-03-08T08:42:51;13.00;83.20
2873;DHT22;1444;49.166;7.312;2024-03-08T08:45:18;12.60;84.10
2873;DHT22;1444;49.166;7.312;2024-03-08T08:47:44;12.40;83.90
2873;DHT22;1444;49.166;7.312;2024-03-08T08:50:12;12.40;87.40
2873;DHT22;1444;49.166;7.312;2024-03-08T08:52:39;12.30;87.00
2873;DHT22;1444;49.166;7.312;2024-03-08T08:55:06;12.20;85.50
2873;DHT22;1444;49.166;7.312;2024-03-08T08:57:33;12.20;87.10
2873;DHT22;1444;49.166;7.312;2024-03-08T08:59:59;12.10;86.50
2873;DHT22;1444;49.166;7.312;2024-03-08T09:02:25;12.00;87.00
2873;DHT22;1444;49.166;7.312;2024-03-08T09:04:52;12.00;87.70
2873;DHT22;1444;49.166;7.312;2024-03-08T09:07:18;11.70;87.60
2873;DHT22;1444;49.166;7.312;2024-03-08T09:09:44;11.50;88.60
2873;DHT22;1444;49.166;7.312;2024-03-08T09:12:11;11.60;89.40
2873;DHT22;1444;49.166;7.312;2024-03-08T09:14:39;11.70;89.40
2873;DHT22;1444;49.166;7.312;2024-03-08T09:17:06;11.90;89.10
2873;DHT22;1444;49.166;7.312;2024-03-08T09:19:34;11.90;89.60
2873;DHT22;1444;49.166;7.312;2024-03-08T09:22:00;12.10;90.50
2873;DHT22;1444;49.166;7.312;2024-03-08T09:24:26;12.40;91.10
2873;DHT22;1444;49.166;7.312;2024-03-08T09:26:52;12.60;90.10
2873;DHT22;1444;49.166;7.312;2024-03-08T09:29:18;12.70;88.00
2873;DHT22;1444;49.166;7.312;2024-03-08T09:31:45;12.60;87.20
2873;DHT22;1444;49.166;7.312;2024-03-08T09:34:12;12.70;88.60
2873;DHT22;1444;49.166;7.312;2024-03-08T09:36:38;12.60;88.30
2873;DHT22;1444;49.166;7.312;2024-03-08T09:39:04;12.60;88.10
2873;DHT22;1444;49.166;7.312;2024-03-08T09:41:33;12.80;88.30
2873;DHT22;1444;49.166;7.312;2024-03-08T09:44:00;12.60;87.20
2873;DHT22;1444;49.166;7.312;2024-03-08T09:46:26;12.70;89.30
2873;DHT22;1444;49.166;7.312;2024-03-08T09:48:53;12.70;88.60
2873;DHT22;1444;49.166;7.312;2024-03-08T09:51:21;12.80;89.10
2873;DHT22;1444;49.166;7.312;2024-03-08T09:53:50;12.70;89.30
2873;DHT22;1444;49.166;7.312;2024-03-08T09:56:16;12.80;89.20
2873;DHT22;1444;49.166;7.312;2024-03-08T09:58:42;12.90;90.10
2873;DHT22;1444;49.166;7.312;2024-03-08T10:01:25;12.80;89.90
2873;DHT22;1444;49.166;7.312;2024-03-08T10:03:53;12.90;88.50
2873;DHT22;1444;49.166;7.312;2024-03-08T10:06:22;13.00;89.00
2873;DHT22;1444;49.166;7.312;2024-03-08T10:08:49;13.00;89.60
2873;DHT22;1444;49.166;7.312;2024-03-08T10:11:17;12.90;90.10
2873;DHT22;1444;49.166;7.312;2024-03-08T10:13:44;12.70;90.50
2873;DHT22;1444;49.166;7.312;2024-03-08T10:18:38;12.70;88.90
2873;DHT22;1444;49.166;7.312;2024-03-08T10:21:06;12.70;87.70
2873;DHT22;1444;49.166;7.312;2024-03-08T10:23:34;12.80;89.50
2873;DHT22;1444;49.166;7.312;2024-03-08T10:26:10;13.00;89.80
2873;DHT22;1444;49.166;7.312;2024-03-08T10:28:38;12.90;89.80
2873;DHT22;1444;49.166;7.312;2024-03-08T10:31:04;12.90;88.80
2873;DHT22;1444;49.166;7.312;2024-03-08T10:33:33;13.00;90.00
2873;DHT22;1444;49.166;7.312;2024-03-08T10:35:59;12.90;89.50
2873;DHT22;1444;49.166;7.312;2024-03-08T10:38:29;13.00;90.30
2873;DHT22;1444;49.166;7.312;2024-03-08T10:40:57;12.90;89.10
2873;DHT22;1444;49.166;7.312;2024-03-08T10:43:25;13.00;89.80
2873;DHT22;1444;49.166;7.312;2024-03-08T10:46:03;13.00;90.20
2873;DHT22;1444;49.166;7.312;2024-03-08T10:51:07;13.10;89.80
2873;DHT22;1444;49.166;7.312;2024-03-08T10:53:37;13.00;88.90
2873;DHT22;1444;49.166;7.312;2024-03-08T10:56:07;13.00;89.40
2873;DHT22;1444;49.166;7.312;2024-03-08T10:58:36;13.00;89.40
2873;DHT22;1444;49.166;7.312;2024-03-08T11:01:03;12.90;89.10
2873;DHT22;1444;49.166;7.312;2024-03-08T11:03:44;13.00;89.50
2873;DHT22;1444;49.166;7.312;2024-03-08T11:06:15;13.00;90.40
2873;DHT22;1444;49.166;7.312;2024-03-08T11:08:43;13.00;90.20
2873;DHT22;1444;49.166;7.312;2024-03-08T11:11:24;12.80;88.90
2873;DHT22;1444;49.166;7.312;2024-03-08T11:13:53;12.80;89.20
2873;DHT22;1444;49.166;7.312;2024-03-08T11:16:38;12.60;90.20
2873;DHT22;1444;49.166;7.312;2024-03-08T11:19:22;12.70;90.40
2873;DHT22;1444;49.166;7.312;2024-03-08T11:21:58;12.80;90.60
2873;DHT22;1444;49.166;7.312;2024-03-08T11:24:24;12.90;90.10
2873;DHT22;1444;49.166;7.312;2024-03-08T11:26:57;12.90;90.20
2873;DHT22;1444;49.166;7.312;2024-03-08T11:29:36;12.80;90.10
2873;DHT22;1444;49.166;7.312;2024-03-08T11:32:07;12.90;90.10
2873;DHT22;1444;49.166;7.312;2024-03-08T11:34:33;12.90;90.10
2873;DHT22;1444;49.166;7.312;2024-03-08T11:37:00;13.00;90.20
2873;DHT22;1444;49.166;7.312;2024-03-08T11:39:27;12.90;90.10
2873;DHT22;1444;49.166;7.312;2024-03-08T11:41:54;12.90;90.40
2873;DHT22;1444;49.166;7.312;2024-03-08T11:44:21;12.80;90.30
2873;DHT22;1444;49.166;7.312;2024-03-08T11:46:50;12.50;88.70
2873;DHT22;1444;49.166;7.312;2024-03-08T11:49:16;12.60;90.20
2873;DHT22;1444;49.166;7.312;2024-03-08T11:51:43;12.70;89.80
2873;DHT22;1444;49.166;7.312;2024-03-08T11:54:11;12.70;90.20
2873;DHT22;1444;49.166;7.312;2024-03-08T11:56:39;12.80;89.70
2873;DHT22;1444;49.166;7.312;2024-03-08T11:59:11;12.90;90.00
2873;DHT22;1444;49.166;7.312;2024-03-08T12:01:38;12.90;90.00
2873;DHT22;1444;49.166;7.312;2024-03-08T12:04:04;12.90;90.30
2873;DHT22;1444;49.166;7.312;2024-03-08T12:06:37;13.00;90.30
2873;DHT22;1444;49.166;7.312;2024-03-08T12:09:08;13.00;90.50
2873;DHT22;1444;49.166;7.312;2024-03-08T12:11:35;12.80;89.40
2873;DHT22;1444;49.166;7.312;2024-03-08T12:14:03;12.80;89.80
2873;DHT22;1444;49.166;7.312;2024-03-08T12:16:29;12.80;90.10
2873;DHT22;1444;49.166;7.312;2024-03-08T12:18:56;12.80;89.70
2873;DHT22;1444;49.166;7.312;2024-03-08T12:21:25;12.70;89.70
2873;DHT22;1444;49.166;7.312;2024-03-08T12:24:08;12.70;90.70
2873;DHT22;1444;49.166;7.312;2024-03-08T12:26:35;12.60;90.80
2873;DHT22;1444;49.166;7.312;2024-03-08T12:29:21;12.50;89.60
2873;DHT22;1444;49.166;7.312;2024-03-08T12:31:50;12.60;90.50
2873;DHT22;1444;49.166;7.312;2024-03-08T12:34:17;12.50;89.90
2873;DHT22;1444;49.166;7.312;2024-03-08T12:36:47;12.60;89.30
2873;DHT22;1444;49.166;7.312;2024-03-08T12:41:41;12.70;90.00
2873;DHT22;1444;49.166;7.312;2024-03-08T12:44:07;12.70;90.40
2873;DHT22;1444;49.166;7.312;2024-03-08T12:46:39;12.60;89.60
2873;DHT22;1444;49.166;7.312;2024-03-08T12:49:07;12.50;88.90
2873;DHT22;1444;49.166;7.312;2024-03-08T12:51:33;12.40;90.20
2873;DHT22;1444;49.166;7.312;2024-03-08T12:54:00;12.20;89.20
2873;DHT22;1444;49.166;7.312;2024-03-08T12:56:30;12.20;90.40
2873;DHT22;1444;49.166;7.312;2024-03-08T12:58:58;12.30;91.00
2873;DHT22;1444;49.166;7.312;2024-03-08T13:01:27;12.30;89.50
2873;DHT22;1444;49.166;7.312;2024-03-08T13:03:54;12.30;89.80
2873;DHT22;1444;49.166;7.312;2024-03-08T13:08:50;12.30;90.20
2873;DHT22;1444;49.166;7.312;2024-03-08T13:11:17;12.50;90.50
2873;DHT22;1444;49.166;7.312;2024-03-08T13:13:43;12.50;89.60
2873;DHT22;1444;49.166;7.312;2024-03-08T13:16:10;12.40;89.90
2873;DHT22;1444;49.166;7.312;2024-03-08T13:18:38;12.40;89.80
2873;DHT22;1444;49.166;7.312;2024-03-08T13:21:05;12.50;90.80
2873;DHT22;1444;49.166;7.312;2024-03-08T13:23:33;12.50;90.40
2873;DHT22;1444;49.166;7.312;2024-03-08T13:26:04;12.60;90.20
2873;DHT22;1444;49.166;7.312;2024-03-08T13:28:31;12.60;90.00
2873;DHT22;1444;49.166;7.312;2024-03-08T13:31:02;12.60;90.00
2873;DHT22;1444;49.166;7.312;2024-03-08T13:33:29;12.60;89.70
2873;DHT22;1444;49.166;7.312;2024-03-08T13:35:55;12.80;89.80
2873;DHT22;1444;49.166;7.312;2024-03-08T13:38:23;12.90;90.00
2873;DHT22;1444;49.166;7.312;2024-03-08T13:40:49;12.90;89.50
2873;DHT22;1444;49.166;7.312;2024-03-08T13:43:17;13.00;89.90
2873;DHT22;1444;49.166;7.312;2024-03-08T13:45:43;12.90;89.00
2873;DHT22;1444;49.166;7.312;2024-03-08T13:48:10;12.80;89.60
2873;DHT22;1444;49.166;7.312;2024-03-08T13:50:38;12.80;90.20
2873;DHT22;1444;49.166;7.312;2024-03-08T13:53:05;12.80;88.70
2873;DHT22;1444;49.166;7.312;2024-03-08T13:55:31;12.80;90.30
2873;DHT22;1444;49.166;7.312;2024-03-08T13:57:59;12.70;89.50
2873;DHT22;1444;49.166;7.312;2024-03-08T14:00:25;12.80;90.10
2873;DHT22;1444;49.166;7.312;2024-03-08T14:02:58;12.60;88.90
2873;DHT22;1444;49.166;7.312;2024-03-08T14:05:24;12.60;88.10
2873;DHT22;1444;49.166;7.312;2024-03-08T14:07:51;12.50;88.90
2873;DHT22;1444;49.166;7.312;2024-03-08T14:10:19;12.30;89.80
2873;DHT22;1444;49.166;7.312;2024-03-08T14:12:48;12.30;89.30
2873;DHT22;1444;49.166;7.312;2024-03-08T14:15:15;12.40;90.40
2873;DHT22;1444;49.166;7.312;2024-03-08T14:17:42;12.30;89.20
2873;DHT22;1444;49.166;7.312;2024-03-08T14:20:09;12.20;88.40
2873;DHT22;1444;49.166;7.312;2024-03-08T14:22:36;12.30;90.00
2873;DHT22;1444;49.166;7.312;2024-03-08T14:25:02;12.30;90.10
2873;DHT22;1444;49.166;7.312;2024-03-08T14:27:30;12.40;89.80
2873;DHT22;1444;49.166;7.312;2024-03-08T14:29:58;12.40;89.90
2873;DHT22;1444;49.166;7.312;2024-03-08T14:32:25;12.40;88.60
2873;DHT22;1444;49.166;7.312;2024-03-08T14:34:51;12.50;89.40
2873;DHT22;1444;49.166;7.312;2024-03-08T14:37:17;12.60;89.00
2873;DHT22;1444;49.166;7.312;2024-03-08T14:39:48;12.60;90.10
2873;DHT22;1444;49.166;7.312;2024-03-08T14:42:17;12.70;90.70
2873;DHT22;1444;49.166;7.312;2024-03-08T14:44:44;12.70;89.70
2873;DHT22;1444;49.166;7.312;2024-03-08T14:47:14;12.80;90.20
2873;DHT22;1444;49.166;7.312;2024-03-08T14:49:40;12.90;89.70
2873;DHT22;1444;49.166;7.312;2024-03-08T14:52:06;12.80;89.10
2873;DHT22;1444;49.166;7.312;2024-03-08T14:54:52;13.00;90.60
2873;DHT22;1444;49.166;7.312;2024-03-08T14:57:18;12.90;88.70
2873;DHT22;1444;49.166;7.312;2024-03-08T14:59:44;12.80;87.40
2873;DHT22;1444;49.166;7.312;2024-03-08T15:02:10;12.70;88.00
2873;DHT22;1444;49.166;7.312;2024-03-08T15:04:37;12.70;88.90
2873;DHT22;1444;49.166;7.312;2024-03-08T15:07:06;12.60;88.50
2873;DHT22;1444;49.166;7.312;2024-03-08T15:09:35;12.70;89.20
2873;DHT22;1444;49.166;7.312;2024-03-08T15:12:06;12.20;87.10
2873;DHT22;1444;49.166;7.312;2024-03-08T15:14:32;12.30;88.10
2873;DHT22;1444;49.166;7.312;2024-03-08T15:16:59;12.30;89.40
2873;DHT22;1444;49.166;7.312;2024-03-08T15:19:26;12.30;89.60
2873;DHT22;1444;49.166;7.312;2024-03-08T15:21:57;12.30;89.40
2873;DHT22;1444;49.166;7.312;2024-03-08T15:24:24;12.10;89.20
2873;DHT22;1444;49.166;7.312;2024-03-08T15:26:50;12.10;89.60
2873;DHT22;1444;49.166;7.312;2024-03-08T15:29:17;12.10;89.80
2873;DHT22;1444;49.166;7.312;2024-03-08T15:31:49;12.20;90.30
2873;DHT22;1444;49.166;7.312;2024-03-08T15:34:19;12.30;90.00
2873;DHT22;1444;49.166;7.312;2024-03-08T15:36:49;12.30;90.10
2873;DHT22;1444;49.166;7.312;2024-03-08T15:39:17;12.30;90.30
2873;DHT22;1444;49.166;7.312;2024-03-08T15:41:46;12.40;90.20
2873;DHT22;1444;49.166;7.312;2024-03-08T15:44:15;12.40;89.80
2873;DHT22;1444;49.166;7.312;2024-03-08T15:46:41;12.20;88.40
2873;DHT22;1444;49.166;7.312;2024-03-08T15:49:09;12.20;88.80
2873;DHT22;1444;49.166;7.312;2024-03-08T15:51:37;12.00;89.60
2873;DHT22;1444;49.166;7.312;2024-03-08T15:54:04;11.80;88.50
2873;DHT22;1444;49.166;7.312;2024-03-08T15:56:31;11.60;89.70
2873;DHT22;1444;49.166;7.312;2024-03-08T15:58:57;11.40;89.40
2873;DHT22;1444;49.166;7.312;2024-03-08T16:01:24;11.50;90.20
2873;DHT22;1444;49.166;7.312;2024-03-08T16:03:50;11.30;90.10
2873;DHT22;1444;49.166;7.312;2024-03-08T16:06:16;11.30;90.30
2873;DHT22;1444;49.166;7.312;2024-03-08T16:08:46;11.30;90.20
2873;DHT22;1444;49.166;7.312;2024-03-08T16:11:16;11.20;89.90
2873;DHT22;1444;49.166;7.312;2024-03-08T16:13:43;11.20;90.60
2873;DHT22;1444;49.166;7.312;2024-03-08T16:16:09;11.10;90.30
2873;DHT22;1444;49.166;7.312;2024-03-08T16:18:35;11.10;90.60
2873;DHT22;1444;49.166;7.312;2024-03-08T16:21:03;11.00;90.80
2873;DHT22;1444;49.166;7.312;2024-03-08T16:23:30;11.00;90.80
2873;DHT22;1444;49.166;7.312;2024-03-08T16:25:56;10.90;90.50
2873;DHT22;1444;49.166;7.312;2024-03-08T16:28:22;10.80;90.70
2873;DHT22;1444;49.166;7.312;2024-03-08T16:30:52;10.70;90.70
2873;DHT22;1444;49.166;7.312;2024-03-08T16:33:20;10.50;90.80
2873;DHT22;1444;49.166;7.312;2024-03-08T16:35:46;10.50;90.90
2873;DHT22;1444;49.166;7.312;2024-03-08T16:38:13;10.50;91.10